createdAt,value
2022-08-26T00:01:19.106Z,26.27
2022-08-26T00:03:56.455Z,26.24
2022-08-26T00:06:23.472Z,26.22
2022-08-26T00:08:50.544Z,26.16
2022-08-26T00:11:26.863Z,26.13
2022-08-26T00:13:57.242Z,26.14
2022-08-26T00:16:25.929Z,26.06
2022-08-26T00:18:53.217Z,26.00
2022-08-26T00:21:20.187Z,26.02
2022-08-26T00:23:47.372Z,25.93
2022-08-26T00:26:14.233Z,25.93
2022-08-26T00:28:41.364Z,25.88
2022-08-26T00:31:11.103Z,25.88
2022-08-26T00:33:39.351Z,25.80
2022-08-26T00:36:07.234Z,25.82
2022-08-26T00:38:35.566Z,25.81
2022-08-26T00:41:05.160Z,25.72
2022-08-26T00:43:46.269Z,25.73
2022-08-26T00:46:29.538Z,25.69
2022-08-26T00:49:11.894Z,25.68
2022-08-26T00:51:49.099Z,25.63
2022-08-26T00:54:15.990Z,25.61
2022-08-26T00:57:04.969Z,25.58
2022-08-26T00:59:35.856Z,25.54
2022-08-26T01:02:06.227Z,25.51
2022-08-26T01:04:35.021Z,25.53
2022-08-26T01:07:03.683Z,25.46
2022-08-26T01:09:31.813Z,25.44
2022-08-26T01:11:59.509Z,25.43
2022-08-26T01:14:27.712Z,25.40
2022-08-26T01:16:54.797Z,25.40
2022-08-26T01:19:59.404Z,25.33
2022-08-26T01:22:30.369Z,25.30
2022-08-26T01:25:00.790Z,25.28
2022-08-26T01:27:32.972Z,25.28
2022-08-26T01:30:00.666Z,25.25
2022-08-26T01:32:28.774Z,25.25
2022-08-26T01:34:55.957Z,25.24
2022-08-26T01:37:26.781Z,25.20
2022-08-26T01:39:54.849Z,25.13
2022-08-26T01:42:23.161Z,25.13
2022-08-26T01:45:21.832Z,25.06
2022-08-26T01:47:50.053Z,25.08
2022-08-26T01:50:27.873Z,25.05
2022-08-26T01:52:58.205Z,25.02
2022-08-26T01:55:32.302Z,24.99
2022-08-26T01:58:04.743Z,24.99
2022-08-26T02:00:32.278Z,24.95
2022-08-26T02:03:17.382Z,24.93
2022-08-26T02:05:45.812Z,24.90
2022-08-26T02:08:15.960Z,24.88
2022-08-26T02:10:54.684Z,24.83
2022-08-26T02:13:22.109Z,24.79
2022-08-26T02:15:49.412Z,24.76
2022-08-26T02:18:17.061Z,24.76
2022-08-26T02:20:44.461Z,24.75
2022-08-26T02:23:11.533Z,24.72
2022-08-26T02:25:47.131Z,24.69
2022-08-26T02:28:14.400Z,24.66
2022-08-26T02:30:41.640Z,24.58
2022-08-26T02:33:08.924Z,24.58
2022-08-26T02:35:36.689Z,24.58
2022-08-26T02:38:09.942Z,24.55
2022-08-26T02:40:40.589Z,24.53
2022-08-26T02:43:08.810Z,24.50
2022-08-26T02:45:35.804Z,24.47
2022-08-26T02:48:22.920Z,24.44
2022-08-26T02:50:51.440Z,24.40
2022-08-26T02:53:23.194Z,24.38
2022-08-26T02:55:52.502Z,24.33
2022-08-26T02:58:19.423Z,24.33
2022-08-26T03:00:53.531Z,24.30
2022-08-26T03:03:23.720Z,24.25
2022-08-26T03:05:51.936Z,24.22
2022-08-26T03:08:18.910Z,24.19
2022-08-26T03:10:47.506Z,24.10
2022-08-26T03:13:16.457Z,24.17
2022-08-26T03:15:44.442Z,24.15
2022-08-26T03:18:15.033Z,24.11
2022-08-26T03:20:41.886Z,24.10
2022-08-26T03:23:09.158Z,24.06
2022-08-26T03:25:36.310Z,24.00
2022-08-26T03:28:03.613Z,23.98
2022-08-26T03:30:44.658Z,23.96
2022-08-26T03:33:12.820Z,23.96
2022-08-26T03:35:40.733Z,23.93
2022-08-26T03:38:08.437Z,23.92
2022-08-26T03:40:36.967Z,23.93
2022-08-26T03:43:04.867Z,23.87
2022-08-26T03:45:32.306Z,23.85
2022-08-26T03:47:59.831Z,23.82
2022-08-26T03:50:26.923Z,23.81
2022-08-26T03:52:54.239Z,23.79
2022-08-26T03:55:23.911Z,23.71
2022-08-26T03:57:51.608Z,23.69
2022-08-26T04:00:18.779Z,23.73
2022-08-26T04:02:48.767Z,23.69
2022-08-26T04:05:17.562Z,23.63
2022-08-26T04:07:44.775Z,23.66
2022-08-26T04:10:13.443Z,23.65
2022-08-26T04:12:42.418Z,23.64
2022-08-26T04:15:11.568Z,23.67
2022-08-26T04:17:38.774Z,23.70
2022-08-26T04:20:06.366Z,23.65
2022-08-26T04:22:33.850Z,23.64
2022-08-26T04:25:00.958Z,23.61
2022-08-26T04:27:27.874Z,23.60
2022-08-26T04:29:55.444Z,23.59
2022-08-26T04:32:22.743Z,23.57
2022-08-26T04:34:49.617Z,23.47
2022-08-26T04:37:16.554Z,23.43
2022-08-26T04:39:44.694Z,23.39
2022-08-26T04:42:13.446Z,23.44
2022-08-26T04:44:41.610Z,23.41
2022-08-26T04:47:08.724Z,23.46
2022-08-26T04:49:36.065Z,23.38
2022-08-26T04:52:05.049Z,23.25
2022-08-26T04:54:32.128Z,23.24
2022-08-26T04:56:59.436Z,23.23
2022-08-26T04:59:26.368Z,23.28
2022-08-26T05:01:59.480Z,23.36
2022-08-26T05:04:26.534Z,23.44
2022-08-26T05:06:56.763Z,23.45
2022-08-26T05:09:26.896Z,23.49
2022-08-26T05:11:54.180Z,23.51
2022-08-26T05:14:22.325Z,23.54
2022-08-26T05:16:49.616Z,23.50
2022-08-26T05:19:18.969Z,23.52
2022-08-26T05:21:47.156Z,23.52
2022-08-26T05:24:14.623Z,23.52
2022-08-26T05:26:41.784Z,23.50
2022-08-26T05:29:11.896Z,23.54
2022-08-26T05:31:39.135Z,23.55
2022-08-26T05:34:06.941Z,23.57
2022-08-26T05:36:34.957Z,23.57
2022-08-26T05:39:03.257Z,23.60
2022-08-26T05:41:34.497Z,23.62
2022-08-26T05:44:06.571Z,23.63
2022-08-26T05:46:33.655Z,23.67
2022-08-26T05:49:01.601Z,23.73
2022-08-26T05:51:30.387Z,23.75
2022-08-26T05:53:57.810Z,23.77
2022-08-26T05:56:26.256Z,23.80
2022-08-26T05:58:53.702Z,23.84
2022-08-26T06:01:22.398Z,23.88
2022-08-26T06:03:52.043Z,23.92
2022-08-26T06:06:28.267Z,23.97
2022-08-26T06:08:57.993Z,23.99
2022-08-26T06:11:25.690Z,24.03
2022-08-26T06:13:53.666Z,24.12
2022-08-26T06:16:23.394Z,24.17
2022-08-26T06:18:52.759Z,24.22
2022-08-26T06:21:31.603Z,24.30
2022-08-26T06:24:20.222Z,24.33
2022-08-26T06:26:50.438Z,24.42
2022-08-26T06:29:24.305Z,24.47
2022-08-26T06:31:52.880Z,24.53
2022-08-26T06:34:20.075Z,24.57
2022-08-26T06:36:47.445Z,24.61
2022-08-26T06:39:15.195Z,24.67
2022-08-26T06:41:46.378Z,24.74
2022-08-26T06:44:14.167Z,24.78
2022-08-26T06:46:41.569Z,24.85
2022-08-26T06:49:09.015Z,24.92
2022-08-26T06:51:37.669Z,24.98
2022-08-26T06:54:05.565Z,25.06
2022-08-26T06:56:35.798Z,25.11
2022-08-26T06:59:02.949Z,25.18
2022-08-26T07:01:33.699Z,25.25
2022-08-26T07:04:04.038Z,25.32
2022-08-26T07:06:40.785Z,25.41
2022-08-26T07:09:10.384Z,25.47
2022-08-26T07:11:37.948Z,25.56
2022-08-26T07:14:06.082Z,25.63
2022-08-26T07:16:33.500Z,25.69
2022-08-26T07:19:01.197Z,25.79
2022-08-26T07:21:30.653Z,25.88
2022-08-26T07:24:01.218Z,25.96
2022-08-26T07:26:29.735Z,26.06
2022-08-26T07:28:57.757Z,26.16
2022-08-26T07:31:27.805Z,26.23
2022-08-26T07:33:56.859Z,26.31
2022-08-26T07:36:24.417Z,26.40
2022-08-26T07:38:52.106Z,26.51
2022-08-26T07:41:21.673Z,26.56
2022-08-26T07:43:48.642Z,26.63
2022-08-26T07:46:20.804Z,26.75
2022-08-26T07:48:54.328Z,26.84
2022-08-26T07:51:23.606Z,26.96
2022-08-26T07:53:52.806Z,27.03
2022-08-26T07:56:21.082Z,27.08
2022-08-26T07:58:51.517Z,27.19
2022-08-26T08:01:23.810Z,27.29
2022-08-26T08:03:51.835Z,27.36
2022-08-26T08:06:22.263Z,27.49
2022-08-26T08:08:50.763Z,27.56
2022-08-26T08:11:21.156Z,27.65
2022-08-26T08:13:49.145Z,27.71
2022-08-26T08:16:16.081Z,27.77
2022-08-26T08:18:43.241Z,27.86
2022-08-26T08:21:21.785Z,27.91
2022-08-26T08:23:52.104Z,28.00
2022-08-26T08:26:19.112Z,28.01
2022-08-26T08:28:47.994Z,28.07
2022-08-26T08:31:52.028Z,28.15
2022-08-26T08:34:09.605Z,28.23
2022-08-26T08:36:36.736Z,28.27
2022-08-26T08:39:03.807Z,28.35
2022-08-26T08:41:45.751Z,28.44
2022-08-26T08:44:15.608Z,28.52
2022-08-26T08:46:43.043Z,28.62
2022-08-26T08:49:10.059Z,28.70
2022-08-26T08:51:39.931Z,28.78
2022-08-26T08:54:07.197Z,28.85
2022-08-26T08:56:47.733Z,28.91
2022-08-26T08:59:17.441Z,29.00
2022-08-26T09:01:59.939Z,29.07
2022-08-26T09:04:51.701Z,29.19
2022-08-26T09:07:27.025Z,29.22
2022-08-26T09:10:05.384Z,29.24
2022-08-26T09:12:33.609Z,29.31
2022-08-26T09:15:08.320Z,29.34
2022-08-26T09:17:46.119Z,29.38
2022-08-26T09:20:19.217Z,29.45
2022-08-26T09:22:46.447Z,29.50
2022-08-26T09:25:14.393Z,29.59
2022-08-26T09:27:51.931Z,29.61
2022-08-26T09:30:29.972Z,29.69
2022-08-26T09:32:59.923Z,29.76
2022-08-26T09:35:32.801Z,29.86
2022-08-26T09:38:00.352Z,29.96
2022-08-26T09:40:36.487Z,30.00
2022-08-26T09:43:08.111Z,30.09
2022-08-26T09:45:35.817Z,30.23
2022-08-26T09:48:03.467Z,30.29
2022-08-26T09:50:35.073Z,30.36
2022-08-26T09:53:17.297Z,30.40
2022-08-26T09:55:50.218Z,30.47
2022-08-26T09:58:32.697Z,30.57
2022-08-26T10:01:01.663Z,30.63
2022-08-26T10:03:32.780Z,30.67
2022-08-26T10:06:17.923Z,30.76
2022-08-26T10:08:50.642Z,30.81
2022-08-26T10:11:41.801Z,30.93
2022-08-26T10:14:37.142Z,30.96
2022-08-26T10:17:10.160Z,31.08
2022-08-26T10:19:57.816Z,31.20
2022-08-26T10:22:32.272Z,31.27
2022-08-26T10:25:01.029Z,31.36
2022-08-26T10:27:53.773Z,31.47
2022-08-26T10:30:23.223Z,31.49
2022-08-26T10:33:07.132Z,31.57
2022-08-26T10:35:36.760Z,31.66
2022-08-26T10:38:13.060Z,31.78
2022-08-26T10:40:55.202Z,31.82
2022-08-26T10:43:46.987Z,31.91
2022-08-26T10:46:19.052Z,31.94
2022-08-26T10:49:06.832Z,31.99
2022-08-26T10:51:42.359Z,32.02
2022-08-26T10:54:27.838Z,32.09
2022-08-26T10:57:22.949Z,32.14
2022-08-26T11:00:34.368Z,32.23
2022-08-26T11:03:38.903Z,32.29
2022-08-26T11:06:29.717Z,32.41
2022-08-26T11:08:58.567Z,32.46
2022-08-26T11:11:42.033Z,32.50
2022-08-26T11:14:29.843Z,32.59
2022-08-26T11:16:58.746Z,32.64
2022-08-26T11:20:00.729Z,32.72
2022-08-26T11:22:33.677Z,32.75
2022-08-26T11:25:02.924Z,32.80
2022-08-26T11:27:35.780Z,32.87
2022-08-26T11:30:18.543Z,32.96
2022-08-26T11:32:52.092Z,32.98
2022-08-26T11:35:19.528Z,33.02
2022-08-26T11:37:51.345Z,33.06
2022-08-26T11:40:22.455Z,33.09
2022-08-26T11:43:11.213Z,33.16
2022-08-26T11:45:39.332Z,33.19
2022-08-26T11:48:19.016Z,33.25
2022-08-26T11:50:54.537Z,33.34
2022-08-26T11:53:22.898Z,33.32
2022-08-26T11:55:50.727Z,33.32
2022-08-26T11:58:17.846Z,33.39
2022-08-26T12:01:09.751Z,33.46
2022-08-26T12:03:49.835Z,33.50
2022-08-26T12:06:17.697Z,33.56
2022-08-26T12:08:45.147Z,33.63
2022-08-26T12:11:20.147Z,33.69
2022-08-26T12:14:16.565Z,33.69
2022-08-26T12:16:43.585Z,33.76
2022-08-26T12:19:33.395Z,33.82
2022-08-26T12:22:09.775Z,33.82
2022-08-26T12:24:42.361Z,33.91
2022-08-26T12:27:23.563Z,33.96
2022-08-26T12:30:12.199Z,33.95
2022-08-26T12:32:57.684Z,33.97
2022-08-26T12:35:25.538Z,34.01
2022-08-26T12:37:53.758Z,34.06
2022-08-26T12:40:40.890Z,34.10
2022-08-26T12:43:08.346Z,34.13
2022-08-26T12:45:41.725Z,34.17
2022-08-26T12:48:25.259Z,34.20
2022-08-26T12:50:52.485Z,34.23
2022-08-26T12:53:24.343Z,34.26
2022-08-26T12:55:56.402Z,34.28
2022-08-26T12:58:26.757Z,34.37
2022-08-26T13:01:08.868Z,34.40
2022-08-26T13:03:45.529Z,34.42
2022-08-26T13:06:17.478Z,34.42
2022-08-26T13:08:46.647Z,34.51
2022-08-26T13:11:22.895Z,34.51
2022-08-26T13:13:54.430Z,34.58
2022-08-26T13:16:21.849Z,34.60
2022-08-26T13:18:53.167Z,34.63
2022-08-26T13:21:26.253Z,34.63
2022-08-26T13:23:53.698Z,34.63
2022-08-26T13:26:20.674Z,34.68
2022-08-26T13:28:53.226Z,34.69
2022-08-26T13:31:29.847Z,34.72
2022-08-26T13:33:57.422Z,34.69
2022-08-26T13:36:24.461Z,34.75
2022-08-26T13:38:51.932Z,34.79
2022-08-26T13:41:29.278Z,34.79
2022-08-26T13:43:58.170Z,34.80
2022-08-26T13:46:27.038Z,34.85
2022-08-26T13:48:54.650Z,34.82
2022-08-26T13:51:22.853Z,34.84
2022-08-26T13:53:50.419Z,34.83
2022-08-26T13:56:18.905Z,34.87
2022-08-26T13:58:46.482Z,34.84
2022-08-26T14:01:15.693Z,34.87
2022-08-26T14:03:42.915Z,34.90
2022-08-26T14:06:10.133Z,34.91
2022-08-26T14:08:37.910Z,34.89
2022-08-26T14:11:04.908Z,34.94
2022-08-26T14:13:31.867Z,34.94
2022-08-26T14:16:01.495Z,34.91
2022-08-26T14:18:30.101Z,34.93
2022-08-26T14:20:57.241Z,34.96
2022-08-26T14:23:24.791Z,34.96
2022-08-26T14:25:52.322Z,34.94
2022-08-26T14:28:19.278Z,34.98
2022-08-26T14:30:49.343Z,34.97
2022-08-26T14:33:16.758Z,34.92
2022-08-26T14:35:47.898Z,34.95
2022-08-26T14:38:16.711Z,34.93
2022-08-26T14:40:46.951Z,34.94
2022-08-26T14:43:15.315Z,34.95
2022-08-26T14:45:43.612Z,34.92
2022-08-26T14:48:10.894Z,34.91
2022-08-26T14:50:38.374Z,34.92
2022-08-26T14:53:24.179Z,34.91
2022-08-26T14:55:51.137Z,34.88
2022-08-26T14:58:18.244Z,34.88
2022-08-26T15:00:45.171Z,34.84
2022-08-26T15:03:12.168Z,34.80
2022-08-26T15:05:48.053Z,34.82
2022-08-26T15:08:15.967Z,34.84
2022-08-26T15:10:43.668Z,34.83
2022-08-26T15:13:10.559Z,34.82
2022-08-26T15:15:38.077Z,34.83
2022-08-26T15:18:06.208Z,34.78
2022-08-26T15:23:07.047Z,34.75
2022-08-26T15:25:34.845Z,34.80
2022-08-26T15:28:01.930Z,34.73
2022-08-26T15:30:28.944Z,34.76
2022-08-26T15:32:56.167Z,34.73
2022-08-26T15:35:23.087Z,34.69
2022-08-26T15:40:18.626Z,34.59
2022-08-26T15:42:54.353Z,34.63
2022-08-26T15:45:25.862Z,34.58
2022-08-26T15:48:01.196Z,34.61
2022-08-26T15:50:43.791Z,34.55
2022-08-26T15:53:10.682Z,34.54
2022-08-26T15:55:37.583Z,34.52
2022-08-26T15:58:04.842Z,34.47
2022-08-26T16:00:32.234Z,34.45
2022-08-26T16:02:59.106Z,34.45
2022-08-26T16:05:26.368Z,34.46
2022-08-26T16:07:53.402Z,34.44
2022-08-26T16:10:20.617Z,34.40
2022-08-26T16:12:47.805Z,34.40
2022-08-26T16:15:14.722Z,34.40
2022-08-26T16:17:41.629Z,34.37
2022-08-26T16:20:09.568Z,34.34
2022-08-26T16:22:36.591Z,34.26
2022-08-26T16:25:03.646Z,34.22
2022-08-26T16:27:32.484Z,34.20
2022-08-26T16:29:59.683Z,34.18
2022-08-26T16:32:31.080Z,34.16
2022-08-26T16:34:58.696Z,34.16
2022-08-26T16:37:25.622Z,34.14
2022-08-26T16:39:52.559Z,34.12
2022-08-26T16:42:19.735Z,34.09
2022-08-26T16:44:46.844Z,34.05
2022-08-26T16:47:14.740Z,34.04
2022-08-26T16:49:42.129Z,33.96
2022-08-26T16:52:09.272Z,33.94
2022-08-26T16:54:36.514Z,33.91
2022-08-26T16:57:03.509Z,33.85
2022-08-26T16:59:32.235Z,33.82
2022-08-26T17:01:59.340Z,33.79
2022-08-26T17:04:26.987Z,33.67
2022-08-26T17:06:54.364Z,33.55
2022-08-26T17:09:21.587Z,33.51
2022-08-26T17:11:48.530Z,33.49
2022-08-26T17:14:15.774Z,33.42
2022-08-26T17:16:44.976Z,33.39
2022-08-26T17:19:12.054Z,33.35
2022-08-26T17:21:39.906Z,33.31
2022-08-26T17:24:06.964Z,33.27
2022-08-26T17:26:34.166Z,33.23
2022-08-26T17:29:01.319Z,33.19
2022-08-26T17:31:28.234Z,33.15
2022-08-26T17:33:55.589Z,33.09
2022-08-26T17:36:27.466Z,33.06
2022-08-26T17:38:55.855Z,33.00
2022-08-26T17:41:22.745Z,32.94
2022-08-26T17:43:49.839Z,32.91
2022-08-26T17:46:16.739Z,32.87
2022-08-26T17:48:43.998Z,32.81
2022-08-26T17:51:14.443Z,32.79
2022-08-26T17:53:41.575Z,32.73
2022-08-26T17:56:09.955Z,32.67
2022-08-26T17:58:37.774Z,32.54
2022-08-26T18:01:06.052Z,32.51
2022-08-26T18:03:33.273Z,32.43
2022-08-26T18:06:00.481Z,32.42
2022-08-26T18:08:27.350Z,32.38
2022-08-26T18:10:54.250Z,32.33
2022-08-26T18:13:21.448Z,32.27
2022-08-26T18:15:48.370Z,32.22
2022-08-26T18:18:15.605Z,32.17
2022-08-26T18:20:43.661Z,32.13
2022-08-26T18:23:11.959Z,32.08
2022-08-26T18:25:42.619Z,32.02
2022-08-26T18:28:09.844Z,31.96
2022-08-26T18:30:37.005Z,31.89
2022-08-26T18:33:04.211Z,31.85
2022-08-26T18:35:31.344Z,31.79
2022-08-26T18:37:58.444Z,31.74
2022-08-26T18:40:37.555Z,31.67
2022-08-26T18:43:04.668Z,31.59
2022-08-26T18:45:31.527Z,31.54
2022-08-26T18:47:58.844Z,31.48
2022-08-26T18:50:25.706Z,31.43
2022-08-26T18:52:52.657Z,31.38
2022-08-26T18:55:19.793Z,31.32
2022-08-26T18:57:46.684Z,31.27
2022-08-26T19:00:13.946Z,31.20
2022-08-26T19:02:41.416Z,31.14
2022-08-26T19:05:10.603Z,31.10
2022-08-26T19:07:39.587Z,31.04
2022-08-26T19:10:07.278Z,30.99
2022-08-26T19:12:35.428Z,30.92
2022-08-26T19:15:02.770Z,30.87
2022-08-26T19:17:29.960Z,30.82
2022-08-26T19:19:56.852Z,30.78
2022-08-26T19:22:23.723Z,30.70
2022-08-26T19:24:51.155Z,30.66
2022-08-26T19:27:18.232Z,30.60
2022-08-26T19:29:45.232Z,30.56
2022-08-26T19:32:12.827Z,30.47
2022-08-26T19:34:39.760Z,30.43
2022-08-26T19:37:06.652Z,30.38
2022-08-26T19:39:33.794Z,30.30
2022-08-26T19:42:00.738Z,30.25
2022-08-26T19:44:46.138Z,30.20
2022-08-26T19:47:14.103Z,30.12
2022-08-26T19:49:41.026Z,30.08
2022-08-26T19:52:08.046Z,30.04
2022-08-26T19:54:36.169Z,30.00
2022-08-26T19:57:03.350Z,29.92
2022-08-26T19:59:30.371Z,29.88
2022-08-26T20:02:01.303Z,29.83
2022-08-26T20:04:30.283Z,29.79
2022-08-26T20:07:00.326Z,29.74
2022-08-26T20:09:31.815Z,29.69
2022-08-26T20:11:58.853Z,29.65
2022-08-26T20:14:26.589Z,29.57
2022-08-26T20:16:53.958Z,29.53
2022-08-26T20:19:39.540Z,29.47
2022-08-26T20:22:07.727Z,29.44
2022-08-26T20:24:35.165Z,29.39
2022-08-26T20:27:06.829Z,29.34
2022-08-26T20:29:34.985Z,29.31
2022-08-26T20:32:02.800Z,29.24
2022-08-26T20:34:30.228Z,29.18
2022-08-26T20:36:57.476Z,29.17
2022-08-26T20:39:24.351Z,29.12
2022-08-26T20:41:51.363Z,29.07
2022-08-26T20:44:18.507Z,29.02
2022-08-26T20:46:45.520Z,28.97
2022-08-26T20:49:13.362Z,28.91
2022-08-26T20:51:43.222Z,28.86
2022-08-26T20:54:11.699Z,28.85
2022-08-26T20:56:39.207Z,28.81
2022-08-26T20:59:07.092Z,28.75
2022-08-26T21:01:34.979Z,28.73
2022-08-26T21:04:03.903Z,28.67
2022-08-26T21:06:32.683Z,28.63
2022-08-26T21:09:01.507Z,28.55
2022-08-26T21:11:29.293Z,28.50
2022-08-26T21:14:07.148Z,28.47
2022-08-26T21:16:44.016Z,28.46
2022-08-26T21:19:12.472Z,28.42
2022-08-26T21:21:39.440Z,28.37
2022-08-26T21:24:06.732Z,28.25
2022-08-26T21:26:33.968Z,28.23
2022-08-26T21:29:01.299Z,28.20
2022-08-26T21:31:29.711Z,28.16
2022-08-26T21:33:56.999Z,28.14
2022-08-26T21:36:24.027Z,28.10
2022-08-26T21:38:50.939Z,28.07
2022-08-26T21:41:22.154Z,27.99
2022-08-26T21:43:50.074Z,27.92
2022-08-26T21:46:21.479Z,27.88
2022-08-26T21:48:55.031Z,27.86
2022-08-26T21:51:23.463Z,27.84
2022-08-26T21:53:52.861Z,27.80
2022-08-26T21:56:20.251Z,27.72
2022-08-26T21:58:47.163Z,27.67
2022-08-26T22:01:16.600Z,27.66
2022-08-26T22:03:47.426Z,27.62
2022-08-26T22:06:18.874Z,27.62
2022-08-26T22:08:46.105Z,27.56
2022-08-26T22:11:13.350Z,27.55
2022-08-26T22:13:40.811Z,27.52
2022-08-26T22:16:08.194Z,27.46
2022-08-26T22:18:35.704Z,27.43
2022-08-26T22:21:06.366Z,27.38
2022-08-26T22:23:33.718Z,27.36
2022-08-26T22:26:00.694Z,27.34
2022-08-26T22:28:28.257Z,27.26
2022-08-26T22:30:55.805Z,27.22
2022-08-26T22:33:23.105Z,27.14
2022-08-26T22:35:50.822Z,27.13
2022-08-26T22:38:18.218Z,27.14
2022-08-26T22:40:48.566Z,27.05
2022-08-26T22:43:15.605Z,27.02
2022-08-26T22:45:44.004Z,27.00
2022-08-26T22:48:11.299Z,26.98
2022-08-26T22:50:38.377Z,26.96
2022-08-26T22:53:05.564Z,26.91
2022-08-26T22:55:32.536Z,26.90
2022-08-26T22:57:59.440Z,26.87
2022-08-26T23:00:32.184Z,26.83
2022-08-26T23:03:00.136Z,26.82
2022-08-26T23:05:27.425Z,26.77
2022-08-26T23:07:56.290Z,26.71
2022-08-26T23:10:23.526Z,26.68
2022-08-26T23:12:50.774Z,26.62
2022-08-26T23:15:17.711Z,26.59
2022-08-26T23:17:45.382Z,26.55
2022-08-26T23:20:13.286Z,26.56
2022-08-26T23:22:40.278Z,26.48
2022-08-26T23:25:08.330Z,26.52
2022-08-26T23:27:38.174Z,26.47
2022-08-26T23:30:06.144Z,26.45
2022-08-26T23:32:33.046Z,26.40
2022-08-26T23:35:00.232Z,26.41
2022-08-26T23:37:35.067Z,26.38
2022-08-26T23:40:08.571Z,26.38
2022-08-26T23:42:36.326Z,26.33
2022-08-26T23:45:05.793Z,26.27
2022-08-26T23:47:33.086Z,26.21
2022-08-26T23:50:00.012Z,26.22
2022-08-26T23:52:45.465Z,26.23
2022-08-26T23:55:12.945Z,26.18
2022-08-26T23:57:39.893Z,26.15
